sensor_id;sensor_type;location;lat;lon;timestamp;P1;durP1;ratioP1;P2;durP2;ratioP2
63434;SDS011;68814;50.872;5.306;2023-08-07T00:01:16;14.32;;;2.67;;
63434;SDS011;68814;50.872;5.306;2023-08-07T00:03:43;10.07;;;2.75;;
63434;SDS011;68814;50.872;5.306;2023-08-07T00:06:09;8.32;;;2.30;;
63434;SDS011;68814;50.872;5.306;2023-08-07T00:08:35;20.55;;;2.60;;
63434;SDS011;68814;50.872;5.306;2023-08-07T00:11:06;10.70;;;2.53;;
63434;SDS011;68814;50.872;5.306;2023-08-07T00:13:33;13.55;;;2.75;;
63434;SDS011;68814;50.872;5.306;2023-08-07T00:15:59;8.65;;;2.45;;
63434;SDS011;68814;50.872;5.306;2023-08-07T00:18:27;13.48;;;2.60;;
63434;SDS011;68814;50.872;5.306;2023-08-07T00:20:54;11.73;;;2.22;;
63434;SDS011;68814;50.872;5.306;2023-08-07T00:23:19;10.50;;;2.30;;
63434;SDS011;68814;50.872;5.306;2023-08-07T00:25:45;20.98;;;3.03;;
63434;SDS011;68814;50.872;5.306;2023-08-07T00:28:11;12.77;;;2.60;;
63434;SDS011;68814;50.872;5.306;2023-08-07T00:30:37;14.60;;;2.88;;
63434;SDS011;68814;50.872;5.306;2023-08-07T00:33:03;12.88;;;2.35;;
63434;SDS011;68814;50.872;5.306;2023-08-07T00:35:29;12.65;;;2.58;;
63434;SDS011;68814;50.872;5.306;2023-08-07T00:37:54;11.27;;;2.85;;
63434;SDS011;68814;50.872;5.306;2023-08-07T00:40:20;15.27;;;2.72;;
63434;SDS011;68814;50.872;5.306;2023-08-07T00:42:46;15.98;;;3.20;;
63434;SDS011;68814;50.872;5.306;2023-08-07T00:45:12;12.48;;;3.03;;
63434;SDS011;68814;50.872;5.306;2023-08-07T00:47:38;17.20;;;2.90;;
63434;SDS011;68814;50.872;5.306;2023-08-07T00:50:04;13.38;;;2.67;;
63434;SDS011;68814;50.872;5.306;2023-08-07T00:52:32;10.57;;;2.45;;
63434;SDS011;68814;50.872;5.306;2023-08-07T00:54:58;10.50;;;2.30;;
63434;SDS011;68814;50.872;5.306;2023-08-07T00:57:24;10.90;;;2.13;;
63434;SDS011;68814;50.872;5.306;2023-08-07T00:59:50;8.38;;;2.15;;
63434;SDS011;68814;50.872;5.306;2023-08-07T01:02:17;15.10;;;2.55;;
63434;SDS011;68814;50.872;5.306;2023-08-07T01:04:43;14.50;;;2.28;;
63434;SDS011;68814;50.872;5.306;2023-08-07T01:07:09;12.13;;;2.45;;
63434;SDS011;68814;50.872;5.306;2023-08-07T01:09:35;11.02;;;2.40;;
63434;SDS011;68814;50.872;5.306;2023-08-07T01:17:11;20.33;;;3.05;;
63434;SDS011;68814;50.872;5.306;2023-08-07T01:19:40;8.88;;;2.30;;
63434;SDS011;68814;50.872;5.306;2023-08-07T01:22:16;9.30;;;2.88;;
63434;SDS011;68814;50.872;5.306;2023-08-07T01:24:45;10.32;;;2.53;;
63434;SDS011;68814;50.872;5.306;2023-08-07T01:32:47;15.27;;;3.08;;
63434;SDS011;68814;50.872;5.306;2023-08-07T01:35:29;14.70;;;2.75;;
63434;SDS011;68814;50.872;5.306;2023-08-07T01:37:59;17.33;;;2.78;;
63434;SDS011;68814;50.872;5.306;2023-08-07T01:40:25;11.98;;;2.40;;
63434;SDS011;68814;50.872;5.306;2023-08-07T01:42:53;9.88;;;2.58;;
63434;SDS011;68814;50.872;5.306;2023-08-07T01:45:29;11.43;;;2.35;;
63434;SDS011;68814;50.872;5.306;2023-08-07T01:47:55;13.52;;;2.85;;
63434;SDS011;68814;50.872;5.306;2023-08-07T01:50:21;10.80;;;2.40;;
63434;SDS011;68814;50.872;5.306;2023-08-07T01:52:48;9.60;;;2.80;;
63434;SDS011;68814;50.872;5.306;2023-08-07T01:55:15;10.25;;;2.15;;
63434;SDS011;68814;50.872;5.306;2023-08-07T01:57:43;11.80;;;3.22;;
63434;SDS011;68814;50.872;5.306;2023-08-07T02:00:11;10.88;;;2.40;;
63434;SDS011;68814;50.872;5.306;2023-08-07T02:02:37;14.68;;;2.50;;
63434;SDS011;68814;50.872;5.306;2023-08-07T02:05:04;12.18;;;3.33;;
63434;SDS011;68814;50.872;5.306;2023-08-07T02:07:31;15.98;;;2.65;;
63434;SDS011;68814;50.872;5.306;2023-08-07T02:09:57;14.43;;;2.40;;
63434;SDS011;68814;50.872;5.306;2023-08-07T02:12:23;8.68;;;2.00;;
63434;SDS011;68814;50.872;5.306;2023-08-07T02:14:50;8.35;;;2.35;;
63434;SDS011;68814;50.872;5.306;2023-08-07T02:17:16;13.18;;;2.50;;
63434;SDS011;68814;50.872;5.306;2023-08-07T02:19:42;11.65;;;2.85;;
63434;SDS011;68814;50.872;5.306;2023-08-07T02:22:08;16.67;;;2.53;;
63434;SDS011;68814;50.872;5.306;2023-08-07T02:24:36;13.00;;;3.20;;
63434;SDS011;68814;50.872;5.306;2023-08-07T02:27:01;10.00;;;2.15;;
63434;SDS011;68814;50.872;5.306;2023-08-07T02:29:27;10.77;;;2.63;;
63434;SDS011;68814;50.872;5.306;2023-08-07T02:31:55;13.77;;;2.63;;
63434;SDS011;68814;50.872;5.306;2023-08-07T02:34:20;7.25;;;2.50;;
63434;SDS011;68814;50.872;5.306;2023-08-07T02:36:46;6.65;;;1.95;;
63434;SDS011;68814;50.872;5.306;2023-08-07T02:39:13;13.05;;;2.55;;
63434;SDS011;68814;50.872;5.306;2023-08-07T02:41:39;8.85;;;2.10;;
63434;SDS011;68814;50.872;5.306;2023-08-07T02:44:05;7.53;;;2.00;;
63434;SDS011;68814;50.872;5.306;2023-08-07T02:46:31;15.60;;;3.08;;
63434;SDS011;68814;50.872;5.306;2023-08-07T02:48:56;5.88;;;2.33;;
63434;SDS011;68814;50.872;5.306;2023-08-07T02:51:22;7.30;;;2.10;;
63434;SDS011;68814;50.872;5.306;2023-08-07T02:53:48;8.30;;;1.73;;
63434;SDS011;68814;50.872;5.306;2023-08-07T02:56:13;12.90;;;2.40;;
63434;SDS011;68814;50.872;5.306;2023-08-07T02:58:39;14.95;;;2.28;;
63434;SDS011;68814;50.872;5.306;2023-08-07T03:01:05;3.70;;;2.10;;
63434;SDS011;68814;50.872;5.306;2023-08-07T03:03:32;11.27;;;1.95;;
63434;SDS011;68814;50.872;5.306;2023-08-07T03:05:58;6.70;;;2.38;;
63434;SDS011;68814;50.872;5.306;2023-08-07T03:08:24;7.65;;;1.92;;
63434;SDS011;68814;50.872;5.306;2023-08-07T03:10:51;8.95;;;2.97;;
63434;SDS011;68814;50.872;5.306;2023-08-07T03:13:22;11.55;;;2.40;;
63434;SDS011;68814;50.872;5.306;2023-08-07T03:15:59;11.35;;;2.20;;
63434;SDS011;68814;50.872;5.306;2023-08-07T03:18:26;12.98;;;2.10;;
63434;SDS011;68814;50.872;5.306;2023-08-07T03:20:54;5.97;;;2.05;;
63434;SDS011;68814;50.872;5.306;2023-08-07T03:23:21;10.95;;;2.08;;
63434;SDS011;68814;50.872;5.306;2023-08-07T03:25:47;9.52;;;2.00;;
63434;SDS011;68814;50.872;5.306;2023-08-07T03:28:13;6.47;;;2.10;;
63434;SDS011;68814;50.872;5.306;2023-08-07T03:30:38;9.70;;;2.25;;
63434;SDS011;68814;50.872;5.306;2023-08-07T03:33:04;14.75;;;2.13;;
63434;SDS011;68814;50.872;5.306;2023-08-07T03:35:31;8.85;;;1.98;;
63434;SDS011;68814;50.872;5.306;2023-08-07T03:37:57;14.75;;;2.65;;
63434;SDS011;68814;50.872;5.306;2023-08-07T03:40:22;10.38;;;2.20;;
63434;SDS011;68814;50.872;5.306;2023-08-07T03:42:48;8.95;;;1.75;;
63434;SDS011;68814;50.872;5.306;2023-08-07T03:45:14;7.57;;;1.88;;
63434;SDS011;68814;50.872;5.306;2023-08-07T03:47:39;9.70;;;1.92;;
63434;SDS011;68814;50.872;5.306;2023-08-07T03:50:05;7.72;;;2.00;;
63434;SDS011;68814;50.872;5.306;2023-08-07T03:52:31;12.38;;;1.85;;
63434;SDS011;68814;50.872;5.306;2023-08-07T03:54:57;8.80;;;1.70;;
63434;SDS011;68814;50.872;5.306;2023-08-07T03:57:22;10.05;;;3.20;;
63434;SDS011;68814;50.872;5.306;2023-08-07T03:59:48;5.88;;;2.08;;
63434;SDS011;68814;50.872;5.306;2023-08-07T04:02:14;11.27;;;2.10;;
63434;SDS011;68814;50.872;5.306;2023-08-07T04:04:40;9.38;;;2.17;;
63434;SDS011;68814;50.872;5.306;2023-08-07T04:07:06;6.32;;;1.40;;
63434;SDS011;68814;50.872;5.306;2023-08-07T04:09:32;4.47;;;1.75;;
63434;SDS011;68814;50.872;5.306;2023-08-07T04:11:58;7.72;;;2.00;;
63434;SDS011;68814;50.872;5.306;2023-08-07T04:14:24;8.52;;;2.33;;
63434;SDS011;68814;50.872;5.306;2023-08-07T04:16:50;10.68;;;2.03;;
63434;SDS011;68814;50.872;5.306;2023-08-07T04:19:16;5.45;;;1.90;;
63434;SDS011;68814;50.872;5.306;2023-08-07T04:21:42;5.63;;;1.77;;
63434;SDS011;68814;50.872;5.306;2023-08-07T04:24:08;9.80;;;2.03;;
63434;SDS011;68814;50.872;5.306;2023-08-07T04:26:35;17.30;;;3.53;;
63434;SDS011;68814;50.872;5.306;2023-08-07T04:29:03;9.05;;;1.75;;
63434;SDS011;68814;50.872;5.306;2023-08-07T04:31:29;12.27;;;1.90;;
63434;SDS011;68814;50.872;5.306;2023-08-07T04:33:58;13.05;;;2.33;;
63434;SDS011;68814;50.872;5.306;2023-08-07T04:36:24;10.63;;;2.70;;
63434;SDS011;68814;50.872;5.306;2023-08-07T04:38:51;10.60;;;1.88;;
63434;SDS011;68814;50.872;5.306;2023-08-07T04:41:16;6.70;;;1.60;;
63434;SDS011;68814;50.872;5.306;2023-08-07T04:43:42;8.30;;;1.95;;
63434;SDS011;68814;50.872;5.306;2023-08-07T04:46:09;8.98;;;1.90;;
63434;SDS011;68814;50.872;5.306;2023-08-07T04:48:35;11.55;;;2.10;;
63434;SDS011;68814;50.872;5.306;2023-08-07T04:51:01;9.38;;;2.00;;
63434;SDS011;68814;50.872;5.306;2023-08-07T04:53:27;6.10;;;1.65;;
63434;SDS011;68814;50.872;5.306;2023-08-07T04:55:53;9.77;;;2.00;;
63434;SDS011;68814;50.872;5.306;2023-08-07T04:58:18;10.88;;;2.08;;
63434;SDS011;68814;50.872;5.306;2023-08-07T05:00:44;11.88;;;2.05;;
63434;SDS011;68814;50.872;5.306;2023-08-07T05:03:10;8.18;;;1.85;;
63434;SDS011;68814;50.872;5.306;2023-08-07T05:05:36;15.50;;;2.85;;
63434;SDS011;68814;50.872;5.306;2023-08-07T05:08:01;6.53;;;2.08;;
63434;SDS011;68814;50.872;5.306;2023-08-07T05:10:27;7.85;;;2.33;;
63434;SDS011;68814;50.872;5.306;2023-08-07T05:12:53;5.20;;;1.73;;
63434;SDS011;68814;50.872;5.306;2023-08-07T05:15:22;6.80;;;1.60;;
63434;SDS011;68814;50.872;5.306;2023-08-07T05:17:48;7.13;;;2.45;;
63434;SDS011;68814;50.872;5.306;2023-08-07T05:20:15;8.02;;;2.05;;
63434;SDS011;68814;50.872;5.306;2023-08-07T05:22:41;6.38;;;1.70;;
63434;SDS011;68814;50.872;5.306;2023-08-07T05:25:06;9.90;;;2.15;;
63434;SDS011;68814;50.872;5.306;2023-08-07T05:27:34;4.70;;;1.85;;
63434;SDS011;68814;50.872;5.306;2023-08-07T05:30:00;8.32;;;2.30;;
63434;SDS011;68814;50.872;5.306;2023-08-07T05:32:26;9.05;;;2.05;;
63434;SDS011;68814;50.872;5.306;2023-08-07T05:34:51;9.75;;;1.85;;
63434;SDS011;68814;50.872;5.306;2023-08-07T05:37:17;5.60;;;1.92;;
63434;SDS011;68814;50.872;5.306;2023-08-07T05:39:43;7.35;;;2.03;;
63434;SDS011;68814;50.872;5.306;2023-08-07T05:42:09;6.32;;;1.83;;
63434;SDS011;68814;50.872;5.306;2023-08-07T05:44:35;6.75;;;2.08;;
63434;SDS011;68814;50.872;5.306;2023-08-07T05:47:01;7.22;;;2.45;;
63434;SDS011;68814;50.872;5.306;2023-08-07T05:49:26;13.73;;;1.85;;
63434;SDS011;68814;50.872;5.306;2023-08-07T05:51:53;16.20;;;2.15;;
63434;SDS011;68814;50.872;5.306;2023-08-07T05:54:18;9.75;;;1.70;;
63434;SDS011;68814;50.872;5.306;2023-08-07T05:56:44;13.30;;;2.58;;
63434;SDS011;68814;50.872;5.306;2023-08-07T05:59:10;5.63;;;1.80;;
63434;SDS011;68814;50.872;5.306;2023-08-07T06:01:36;9.27;;;2.42;;
63434;SDS011;68814;50.872;5.306;2023-08-07T06:04:02;8.25;;;1.98;;
63434;SDS011;68814;50.872;5.306;2023-08-07T06:06:28;6.95;;;1.48;;
63434;SDS011;68814;50.872;5.306;2023-08-07T06:08:54;10.77;;;2.00;;
63434;SDS011;68814;50.872;5.306;2023-08-07T06:11:20;6.82;;;1.90;;
63434;SDS011;68814;50.872;5.306;2023-08-07T06:13:46;8.93;;;2.20;;
63434;SDS011;68814;50.872;5.306;2023-08-07T06:16:12;8.68;;;2.35;;
63434;SDS011;68814;50.872;5.306;2023-08-07T06:18:37;14.23;;;2.03;;
63434;SDS011;68814;50.872;5.306;2023-08-07T06:21:03;8.50;;;2.17;;
63434;SDS011;68814;50.872;5.306;2023-08-07T06:23:32;8.68;;;2.30;;
63434;SDS011;68814;50.872;5.306;2023-08-07T06:25:59;7.50;;;2.00;;
63434;SDS011;68814;50.872;5.306;2023-08-07T06:28:29;8.00;;;2.08;;
63434;SDS011;68814;50.872;5.306;2023-08-07T06:31:15;8.13;;;1.83;;
63434;SDS011;68814;50.872;5.306;2023-08-07T06:33:41;7.90;;;2.28;;
63434;SDS011;68814;50.872;5.306;2023-08-07T06:36:07;7.05;;;1.90;;
63434;SDS011;68814;50.872;5.306;2023-08-07T06:38:36;10.98;;;2.10;;
63434;SDS011;68814;50.872;5.306;2023-08-07T06:41:01;7.18;;;2.15;;
63434;SDS011;68814;50.872;5.306;2023-08-07T06:43:27;5.55;;;1.98;;
63434;SDS011;68814;50.872;5.306;2023-08-07T06:54:33;7.97;;;2.72;;
63434;SDS011;68814;50.872;5.306;2023-08-07T06:57:19;7.43;;;2.40;;
63434;SDS011;68814;50.872;5.306;2023-08-07T06:59:45;6.80;;;1.73;;
63434;SDS011;68814;50.872;5.306;2023-08-07T07:02:12;13.45;;;2.35;;
63434;SDS011;68814;50.872;5.306;2023-08-07T07:04:38;4.78;;;1.95;;
63434;SDS011;68814;50.872;5.306;2023-08-07T07:07:35;8.98;;;1.73;;
63434;SDS011;68814;50.872;5.306;2023-08-07T07:13:42;5.90;;;1.60;;
63434;SDS011;68814;50.872;5.306;2023-08-07T07:16:08;11.25;;;2.35;;
63434;SDS011;68814;50.872;5.306;2023-08-07T07:25:22;8.73;;;2.03;;
63434;SDS011;68814;50.872;5.306;2023-08-07T07:27:56;7.82;;;1.88;;
63434;SDS011;68814;50.872;5.306;2023-08-07T07:30:24;8.80;;;1.60;;
63434;SDS011;68814;50.872;5.306;2023-08-07T07:32:53;8.10;;;1.80;;
63434;SDS011;68814;50.872;5.306;2023-08-07T07:35:20;10.57;;;1.90;;
63434;SDS011;68814;50.872;5.306;2023-08-07T07:38:08;8.93;;;1.85;;
63434;SDS011;68814;50.872;5.306;2023-08-07T07:40:59;6.80;;;2.17;;
63434;SDS011;68814;50.872;5.306;2023-08-07T07:43:26;8.70;;;1.88;;
63434;SDS011;68814;50.872;5.306;2023-08-07T07:59:12;6.03;;;1.85;;
63434;SDS011;68814;50.872;5.306;2023-08-07T08:01:40;9.93;;;2.90;;
63434;SDS011;68814;50.872;5.306;2023-08-07T08:04:06;8.85;;;1.75;;
63434;SDS011;68814;50.872;5.306;2023-08-07T08:06:31;5.97;;;2.00;;
63434;SDS011;68814;50.872;5.306;2023-08-07T08:08:57;9.27;;;2.30;;
63434;SDS011;68814;50.872;5.306;2023-08-07T08:11:23;7.32;;;1.98;;
63434;SDS011;68814;50.872;5.306;2023-08-07T08:13:48;3.72;;;2.10;;
63434;SDS011;68814;50.872;5.306;2023-08-07T08:16:14;5.93;;;1.80;;
63434;SDS011;68814;50.872;5.306;2023-08-07T08:18:40;4.35;;;1.40;;
63434;SDS011;68814;50.872;5.306;2023-08-07T08:21:06;8.98;;;2.10;;
63434;SDS011;68814;50.872;5.306;2023-08-07T08:23:32;10.38;;;2.13;;
63434;SDS011;68814;50.872;5.306;2023-08-07T08:25:59;4.75;;;1.63;;
63434;SDS011;68814;50.872;5.306;2023-08-07T08:28:24;6.93;;;1.55;;
63434;SDS011;68814;50.872;5.306;2023-08-07T08:30:50;7.85;;;2.22;;
63434;SDS011;68814;50.872;5.306;2023-08-07T08:33:21;8.45;;;2.22;;
63434;SDS011;68814;50.872;5.306;2023-08-07T08:35:47;7.95;;;1.98;;
63434;SDS011;68814;50.872;5.306;2023-08-07T08:38:12;9.73;;;2.50;;
63434;SDS011;68814;50.872;5.306;2023-08-07T08:40:38;9.73;;;1.98;;
63434;SDS011;68814;50.872;5.306;2023-08-07T08:43:05;8.43;;;1.88;;
63434;SDS011;68814;50.872;5.306;2023-08-07T08:45:31;6.88;;;2.22;;
63434;SDS011;68814;50.872;5.306;2023-08-07T08:48:01;10.68;;;2.25;;
63434;SDS011;68814;50.872;5.306;2023-08-07T08:50:29;7.72;;;2.00;;
63434;SDS011;68814;50.872;5.306;2023-08-07T08:52:55;8.32;;;2.00;;
63434;SDS011;68814;50.872;5.306;2023-08-07T08:55:21;11.52;;;2.08;;
63434;SDS011;68814;50.872;5.306;2023-08-07T08:57:48;7.75;;;1.73;;
63434;SDS011;68814;50.872;5.306;2023-08-07T09:00:15;6.93;;;1.85;;
63434;SDS011;68814;50.872;5.306;2023-08-07T09:02:47;8.45;;;1.67;;
63434;SDS011;68814;50.872;5.306;2023-08-07T09:05:13;5.72;;;1.48;;
63434;SDS011;68814;50.872;5.306;2023-08-07T09:41:44;6.43;;;1.90;;
63434;SDS011;68814;50.872;5.306;2023-08-07T09:44:19;5.28;;;1.98;;
63434;SDS011;68814;50.872;5.306;2023-08-07T09:49:21;5.80;;;1.95;;
63434;SDS011;68814;50.872;5.306;2023-08-07T09:51:47;10.07;;;2.33;;
63434;SDS011;68814;50.872;5.306;2023-08-07T09:54:22;8.05;;;1.90;;
63434;SDS011;68814;50.872;5.306;2023-08-07T11:14:37;4.10;;;1.15;;
63434;SDS011;68814;50.872;5.306;2023-08-07T11:19:38;4.72;;;1.60;;
63434;SDS011;68814;50.872;5.306;2023-08-07T11:22:05;3.00;;;1.63;;
63434;SDS011;68814;50.872;5.306;2023-08-07T12:08:54;2.05;;;1.30;;
63434;SDS011;68814;50.872;5.306;2023-08-07T12:11:22;3.25;;;1.20;;
63434;SDS011;68814;50.872;5.306;2023-08-07T12:13:51;1.90;;;1.02;;
63434;SDS011;68814;50.872;5.306;2023-08-07T12:16:17;2.35;;;1.10;;
63434;SDS011;68814;50.872;5.306;2023-08-07T12:18:50;1.90;;;1.20;;
63434;SDS011;68814;50.872;5.306;2023-08-07T12:21:18;3.13;;;1.02;;
63434;SDS011;68814;50.872;5.306;2023-08-07T12:23:49;3.00;;;1.00;;
63434;SDS011;68814;50.872;5.306;2023-08-07T12:26:17;3.65;;;1.10;;
63434;SDS011;68814;50.872;5.306;2023-08-07T12:28:47;3.85;;;1.15;;
63434;SDS011;68814;50.872;5.306;2023-08-07T12:31:15;2.03;;;0.88;;
63434;SDS011;68814;50.872;5.306;2023-08-07T12:33:42;1.63;;;1.00;;
63434;SDS011;68814;50.872;5.306;2023-08-07T12:36:14;4.00;;;0.77;;
63434;SDS011;68814;50.872;5.306;2023-08-07T12:38:43;2.60;;;0.80;;
63434;SDS011;68814;50.872;5.306;2023-08-07T12:41:12;2.35;;;0.75;;
63434;SDS011;68814;50.872;5.306;2023-08-07T12:43:44;1.38;;;0.93;;
63434;SDS011;68814;50.872;5.306;2023-08-07T12:46:13;4.93;;;0.90;;
63434;SDS011;68814;50.872;5.306;2023-08-07T12:48:43;2.20;;;0.85;;
63434;SDS011;68814;50.872;5.306;2023-08-07T12:51:10;3.67;;;1.15;;
63434;SDS011;68814;50.872;5.306;2023-08-07T12:53:45;1.98;;;0.90;;
63434;SDS011;68814;50.872;5.306;2023-08-07T12:56:21;3.95;;;0.60;;
63434;SDS011;68814;50.872;5.306;2023-08-07T12:58:51;2.67;;;0.90;;
63434;SDS011;68814;50.872;5.306;2023-08-07T13:01:19;3.92;;;0.98;;
63434;SDS011;68814;50.872;5.306;2023-08-07T13:04:11;1.52;;;0.60;;
63434;SDS011;68814;50.872;5.306;2023-08-07T13:06:58;2.30;;;0.77;;
63434;SDS011;68814;50.872;5.306;2023-08-07T13:09:23;1.20;;;0.70;;
63434;SDS011;68814;50.872;5.306;2023-08-07T13:11:49;1.92;;;0.93;;
63434;SDS011;68814;50.872;5.306;2023-08-07T13:14:18;3.55;;;1.08;;
63434;SDS011;68814;50.872;5.306;2023-08-07T13:16:44;1.25;;;0.73;;
63434;SDS011;68814;50.872;5.306;2023-08-07T13:19:10;1.90;;;0.60;;
63434;SDS011;68814;50.872;5.306;2023-08-07T13:21:35;3.88;;;0.73;;
63434;SDS011;68814;50.872;5.306;2023-08-07T13:24:01;1.67;;;0.70;;
63434;SDS011;68814;50.872;5.306;2023-08-07T13:26:27;3.55;;;0.93;;
63434;SDS011;68814;50.872;5.306;2023-08-07T13:28:53;2.00;;;0.85;;
63434;SDS011;68814;50.872;5.306;2023-08-07T13:36:29;1.35;;;0.70;;
63434;SDS011;68814;50.872;5.306;2023-08-07T13:39:00;1.35;;;0.80;;
63434;SDS011;68814;50.872;5.306;2023-08-07T13:41:26;2.55;;;0.80;;
63434;SDS011;68814;50.872;5.306;2023-08-07T13:43:55;2.28;;;0.88;;
63434;SDS011;68814;50.872;5.306;2023-08-07T13:46:21;2.08;;;0.85;;
63434;SDS011;68814;50.872;5.306;2023-08-07T13:48:47;1.90;;;0.82;;
63434;SDS011;68814;50.872;5.306;2023-08-07T13:51:16;3.53;;;0.75;;
63434;SDS011;68814;50.872;5.306;2023-08-07T13:53:48;2.10;;;0.80;;
63434;SDS011;68814;50.872;5.306;2023-08-07T13:56:19;2.30;;;0.75;;
63434;SDS011;68814;50.872;5.306;2023-08-07T13:58:46;1.80;;;0.98;;
63434;SDS011;68814;50.872;5.306;2023-08-07T14:01:16;2.75;;;0.80;;
63434;SDS011;68814;50.872;5.306;2023-08-07T14:06:19;1.38;;;0.70;;
63434;SDS011;68814;50.872;5.306;2023-08-07T14:08:45;2.72;;;0.80;;
63434;SDS011;68814;50.872;5.306;2023-08-07T14:11:12;1.92;;;0.77;;
63434;SDS011;68814;50.872;5.306;2023-08-07T14:13:39;1.45;;;0.90;;
63434;SDS011;68814;50.872;5.306;2023-08-07T14:16:06;2.55;;;0.70;;
63434;SDS011;68814;50.872;5.306;2023-08-07T14:18:32;3.08;;;0.88;;
63434;SDS011;68814;50.872;5.306;2023-08-07T14:20:58;4.32;;;0.90;;
63434;SDS011;68814;50.872;5.306;2023-08-07T14:23:24;3.40;;;1.02;;
63434;SDS011;68814;50.872;5.306;2023-08-07T14:25:51;3.45;;;0.60;;
63434;SDS011;68814;50.872;5.306;2023-08-07T14:28:18;2.97;;;0.80;;
63434;SDS011;68814;50.872;5.306;2023-08-07T14:30:44;3.15;;;0.70;;
63434;SDS011;68814;50.872;5.306;2023-08-07T14:33:10;2.15;;;0.90;;
63434;SDS011;68814;50.872;5.306;2023-08-07T14:35:36;2.47;;;1.17;;
63434;SDS011;68814;50.872;5.306;2023-08-07T14:38:01;1.88;;;0.70;;
63434;SDS011;68814;50.872;5.306;2023-08-07T14:40:27;2.53;;;0.90;;
63434;SDS011;68814;50.872;5.306;2023-08-07T14:42:53;2.58;;;1.15;;
63434;SDS011;68814;50.872;5.306;2023-08-07T14:45:20;1.73;;;0.85;;
63434;SDS011;68814;50.872;5.306;2023-08-07T14:47:47;4.22;;;1.10;;
63434;SDS011;68814;50.872;5.306;2023-08-07T14:50:13;3.20;;;0.80;;
63434;SDS011;68814;50.872;5.306;2023-08-07T14:52:40;2.83;;;0.90;;
63434;SDS011;68814;50.872;5.306;2023-08-07T14:55:06;2.10;;;0.77;;
63434;SDS011;68814;50.872;5.306;2023-08-07T14:57:32;3.70;;;0.73;;
63434;SDS011;68814;50.872;5.306;2023-08-07T14:59:58;3.03;;;0.88;;
63434;SDS011;68814;50.872;5.306;2023-08-07T15:02:23;2.80;;;0.82;;
63434;SDS011;68814;50.872;5.306;2023-08-07T15:04:49;3.10;;;0.80;;
63434;SDS011;68814;50.872;5.306;2023-08-07T15:07:15;2.97;;;0.90;;
63434;SDS011;68814;50.872;5.306;2023-08-07T15:09:41;1.48;;;0.90;;
63434;SDS011;68814;50.872;5.306;2023-08-07T15:12:07;1.67;;;1.00;;
63434;SDS011;68814;50.872;5.306;2023-08-07T15:14:33;1.75;;;1.13;;
63434;SDS011;68814;50.872;5.306;2023-08-07T15:16:59;1.45;;;0.90;;
63434;SDS011;68814;50.872;5.306;2023-08-07T15:19:24;3.25;;;1.08;;
63434;SDS011;68814;50.872;5.306;2023-08-07T15:21:50;2.45;;;0.90;;
63434;SDS011;68814;50.872;5.306;2023-08-07T15:24:18;3.28;;;0.95;;
63434;SDS011;68814;50.872;5.306;2023-08-07T15:26:45;2.38;;;1.10;;
63434;SDS011;68814;50.872;5.306;2023-08-07T15:29:18;2.20;;;0.80;;
63434;SDS011;68814;50.872;5.306;2023-08-07T15:32:14;5.90;;;1.10;;
63434;SDS011;68814;50.872;5.306;2023-08-07T15:34:54;1.25;;;0.90;;
63434;SDS011;68814;50.872;5.306;2023-08-07T15:37:42;2.63;;;0.80;;
63434;SDS011;68814;50.872;5.306;2023-08-07T15:40:32;3.15;;;0.60;;
63434;SDS011;68814;50.872;5.306;2023-08-07T15:42:58;1.63;;;0.60;;
63434;SDS011;68814;50.872;5.306;2023-08-07T15:45:26;2.25;;;0.60;;
63434;SDS011;68814;50.872;5.306;2023-08-07T15:47:51;1.77;;;0.70;;
63434;SDS011;68814;50.872;5.306;2023-08-07T15:50:17;1.80;;;0.63;;
63434;SDS011;68814;50.872;5.306;2023-08-07T15:52:44;1.63;;;0.57;;
63434;SDS011;68814;50.872;5.306;2023-08-07T15:55:12;1.77;;;1.08;;
63434;SDS011;68814;50.872;5.306;2023-08-07T15:57:42;2.67;;;0.60;;
63434;SDS011;68814;50.872;5.306;2023-08-07T16:00:14;1.33;;;0.50;;
63434;SDS011;68814;50.872;5.306;2023-08-07T16:02:40;1.02;;;0.55;;
63434;SDS011;68814;50.872;5.306;2023-08-07T16:05:06;1.48;;;0.68;;
63434;SDS011;68814;50.872;5.306;2023-08-07T16:07:32;1.60;;;0.50;;
63434;SDS011;68814;50.872;5.306;2023-08-07T16:09:58;0.70;;;0.43;;
63434;SDS011;68814;50.872;5.306;2023-08-07T16:12:23;2.67;;;0.90;;
63434;SDS011;68814;50.872;5.306;2023-08-07T16:14:49;3.30;;;0.82;;
63434;SDS011;68814;50.872;5.306;2023-08-07T16:17:15;1.55;;;0.50;;
63434;SDS011;68814;50.872;5.306;2023-08-07T16:19:41;0.73;;;0.40;;
63434;SDS011;68814;50.872;5.306;2023-08-07T16:22:07;1.10;;;0.43;;
63434;SDS011;68814;50.872;5.306;2023-08-07T16:24:32;3.50;;;0.50;;
63434;SDS011;68814;50.872;5.306;2023-08-07T16:26:58;2.33;;;0.70;;
63434;SDS011;68814;50.872;5.306;2023-08-07T16:29:24;4.57;;;0.98;;
63434;SDS011;68814;50.872;5.306;2023-08-07T16:31:50;1.92;;;0.50;;
63434;SDS011;68814;50.872;5.306;2023-08-07T16:34:16;0.80;;;0.40;;
63434;SDS011;68814;50.872;5.306;2023-08-07T16:36:42;2.08;;;0.57;;
63434;SDS011;68814;50.872;5.306;2023-08-07T16:39:08;1.05;;;0.40;;
63434;SDS011;68814;50.872;5.306;2023-08-07T16:41:34;1.00;;;0.40;;
63434;SDS011;68814;50.872;5.306;2023-08-07T16:44:00;4.35;;;0.60;;
63434;SDS011;68814;50.872;5.306;2023-08-07T16:46:26;3.17;;;0.30;;
63434;SDS011;68814;50.872;5.306;2023-08-07T16:48:54;1.25;;;0.50;;
63434;SDS011;68814;50.872;5.306;2023-08-07T16:51:23;4.38;;;0.60;;
63434;SDS011;68814;50.872;5.306;2023-08-07T16:53:48;2.40;;;0.43;;
63434;SDS011;68814;50.872;5.306;2023-08-07T16:56:14;1.75;;;0.45;;
63434;SDS011;68814;50.872;5.306;2023-08-07T16:58:41;1.00;;;0.47;;
63434;SDS011;68814;50.872;5.306;2023-08-07T17:01:09;2.92;;;0.40;;
63434;SDS011;68814;50.872;5.306;2023-08-07T17:03:35;1.25;;;0.40;;
63434;SDS011;68814;50.872;5.306;2023-08-07T17:06:00;1.80;;;0.60;;
63434;SDS011;68814;50.872;5.306;2023-08-07T17:08:26;3.13;;;0.50;;
63434;SDS011;68814;50.872;5.306;2023-08-07T17:10:52;1.92;;;0.50;;
63434;SDS011;68814;50.872;5.306;2023-08-07T17:13:21;2.05;;;0.50;;
63434;SDS011;68814;50.872;5.306;2023-08-07T17:15:48;2.35;;;0.52;;
63434;SDS011;68814;50.872;5.306;2023-08-07T17:18:15;1.02;;;0.50;;
63434;SDS011;68814;50.872;5.306;2023-08-07T17:20:41;1.65;;;0.50;;
63434;SDS011;68814;50.872;5.306;2023-08-07T17:23:07;0.85;;;0.40;;
63434;SDS011;68814;50.872;5.306;2023-08-07T17:25:32;4.43;;;1.08;;
63434;SDS011;68814;50.872;5.306;2023-08-07T17:27:58;1.30;;;0.40;;
63434;SDS011;68814;50.872;5.306;2023-08-07T17:30:24;1.25;;;0.50;;
63434;SDS011;68814;50.872;5.306;2023-08-07T17:32:50;2.65;;;0.50;;
63434;SDS011;68814;50.872;5.306;2023-08-07T17:35:16;1.33;;;0.40;;
63434;SDS011;68814;50.872;5.306;2023-08-07T17:37:46;1.20;;;0.40;;
63434;SDS011;68814;50.872;5.306;2023-08-07T17:40:12;0.75;;;0.30;;
63434;SDS011;68814;50.872;5.306;2023-08-07T17:42:37;1.98;;;0.40;;
63434;SDS011;68814;50.872;5.306;2023-08-07T17:45:03;3.10;;;0.65;;
63434;SDS011;68814;50.872;5.306;2023-08-07T17:47:29;2.22;;;0.50;;
63434;SDS011;68814;50.872;5.306;2023-08-07T17:49:55;1.88;;;0.43;;
63434;SDS011;68814;50.872;5.306;2023-08-07T17:52:20;1.20;;;0.40;;
63434;SDS011;68814;50.872;5.306;2023-08-07T17:54:46;1.15;;;0.60;;
63434;SDS011;68814;50.872;5.306;2023-08-07T17:57:16;1.92;;;0.32;;
63434;SDS011;68814;50.872;5.306;2023-08-07T17:59:42;1.13;;;0.38;;
63434;SDS011;68814;50.872;5.306;2023-08-07T18:02:08;2.85;;;0.50;;
63434;SDS011;68814;50.872;5.306;2023-08-07T18:04:33;2.45;;;0.60;;
63434;SDS011;68814;50.872;5.306;2023-08-07T18:06:59;2.20;;;0.40;;
63434;SDS011;68814;50.872;5.306;2023-08-07T18:09:25;1.20;;;0.40;;
63434;SDS011;68814;50.872;5.306;2023-08-07T18:11:51;2.05;;;0.60;;
63434;SDS011;68814;50.872;5.306;2023-08-07T18:14:17;2.00;;;0.50;;
63434;SDS011;68814;50.872;5.306;2023-08-07T18:16:42;1.15;;;0.50;;
63434;SDS011;68814;50.872;5.306;2023-08-07T18:19:08;1.25;;;0.60;;